sensor_id;sensor_type;location;lat;lon;timestamp;pressure;altitude;pressure_sealevel;temperature;humidity
17785;BME280;9016;53.582;10.062;2023-01-28T00:01:31;102892.06;;;5.22;53.93
17785;BME280;9016;53.582;10.062;2023-01-28T00:03:59;102892.06;;;5.23;54.24
17785;BME280;9016;53.582;10.062;2023-01-28T00:06:27;102886.81;;;5.20;53.73
17785;BME280;9016;53.582;10.062;2023-01-28T00:08:55;102885.91;;;5.20;53.90
17785;BME280;9016;53.582;10.062;2023-01-28T00:11:23;102893.81;;;5.29;53.95
17785;BME280;9016;53.582;10.062;2023-01-28T00:13:51;102896.44;;;5.29;53.87
17785;BME280;9016;53.582;10.062;2023-01-28T00:16:21;102885.88;;;5.27;54.05
17785;BME280;9016;53.582;10.062;2023-01-28T00:18:49;102890.28;;;5.28;54.18
17785;BME280;9016;53.582;10.062;2023-01-28T00:21:17;102895.56;;;5.28;53.63
17785;BME280;9016;53.582;10.062;2023-01-28T00:23:51;102886.78;;;5.19;53.05
17785;BME280;9016;53.582;10.062;2023-01-28T00:26:21;102899.16;;;5.12;53.20
17785;BME280;9016;53.582;10.062;2023-01-28T00:28:49;102899.13;;;5.14;53.64
17785;BME280;9016;53.582;10.062;2023-01-28T00:31:20;102903.56;;;5.16;53.57
17785;BME280;9016;53.582;10.062;2023-01-28T00:33:50;102901.78;;;5.15;54.05
17785;BME280;9016;53.582;10.062;2023-01-28T00:36:19;102902.66;;;5.22;54.10
17785;BME280;9016;53.582;10.062;2023-01-28T00:38:51;102897.31;;;5.26;54.06
17785;BME280;9016;53.582;10.062;2023-01-28T00:41:20;102893.81;;;5.23;54.09
17785;BME280;9016;53.582;10.062;2023-01-28T00:43:49;102892.94;;;5.27;54.34
17785;BME280;9016;53.582;10.062;2023-01-28T00:46:19;102884.13;;;5.19;53.60
17785;BME280;9016;53.582;10.062;2023-01-28T00:48:49;102888.56;;;5.09;54.72
17785;BME280;9016;53.582;10.062;2023-01-28T00:51:18;102893.88;;;5.00;54.15
17785;BME280;9016;53.582;10.062;2023-01-28T00:53:46;102893.84;;;5.15;54.31
17785;BME280;9016;53.582;10.062;2023-01-28T00:56:16;102888.66;;;4.89;54.34
17785;BME280;9016;53.582;10.062;2023-01-28T00:58:45;102893.94;;;4.83;54.50
17785;BME280;9016;53.582;10.062;2023-01-28T01:01:15;102889.50;;;4.94;54.72
17785;BME280;9016;53.582;10.062;2023-01-28T01:03:44;102885.09;;;4.98;54.75
17785;BME280;9016;53.582;10.062;2023-01-28T01:06:15;102886.00;;;5.01;54.40
17785;BME280;9016;53.582;10.062;2023-01-28T01:08:43;102896.56;;;4.92;53.98
17785;BME280;9016;53.582;10.062;2023-01-28T01:11:16;102888.63;;;4.98;54.47
17785;BME280;9016;53.582;10.062;2023-01-28T01:13:49;102884.22;;;5.00;53.84
17785;BME280;9016;53.582;10.062;2023-01-28T01:16:17;102886.88;;;4.91;54.54
17785;BME280;9016;53.582;10.062;2023-01-28T01:18:45;102891.28;;;4.94;54.32
17785;BME280;9016;53.582;10.062;2023-01-28T01:21:17;102896.59;;;4.86;54.57
17785;BME280;9016;53.582;10.062;2023-01-28T01:23:46;102897.44;;;4.87;54.73
17785;BME280;9016;53.582;10.062;2023-01-28T01:26:14;102885.97;;;4.92;54.68
17785;BME280;9016;53.582;10.062;2023-01-28T01:28:42;102888.66;;;4.82;53.94
17785;BME280;9016;53.582;10.062;2023-01-28T01:31:12;102888.66;;;4.89;54.92
17785;BME280;9016;53.582;10.062;2023-01-28T01:33:41;102887.72;;;4.98;54.92
17785;BME280;9016;53.582;10.062;2023-01-28T01:36:10;102885.06;;;5.09;54.91
17785;BME280;9016;53.582;10.062;2023-01-28T01:38:40;102891.22;;;5.18;54.13
17785;BME280;9016;53.582;10.062;2023-01-28T01:41:24;102889.44;;;5.19;53.92
17785;BME280;9016;53.582;10.062;2023-01-28T01:43:54;102877.13;;;5.16;54.39
17785;BME280;9016;53.582;10.062;2023-01-28T01:46:30;102882.38;;;5.19;55.08
17785;BME280;9016;53.582;10.062;2023-01-28T01:49:05;102880.63;;;5.15;54.43
17785;BME280;9016;53.582;10.062;2023-01-28T01:51:35;102880.63;;;5.18;54.86
17785;BME280;9016;53.582;10.062;2023-01-28T01:54:05;102879.75;;;5.19;54.34
17785;BME280;9016;53.582;10.062;2023-01-28T01:56:37;102878.88;;;5.17;54.46
17785;BME280;9016;53.582;10.062;2023-01-28T01:59:10;102888.53;;;5.21;54.13
17785;BME280;9016;53.582;10.062;2023-01-28T02:01:40;102885.00;;;5.22;54.04
17785;BME280;9016;53.582;10.062;2023-01-28T02:04:12;102884.13;;;5.19;54.18
17785;BME280;9016;53.582;10.062;2023-01-28T02:06:41;102880.63;;;5.17;54.04
17785;BME280;9016;53.582;10.062;2023-01-28T02:09:22;102889.44;;;5.20;53.57
17785;BME280;9016;53.582;10.062;2023-01-28T02:11:52;102883.28;;;5.20;54.37
17785;BME280;9016;53.582;10.062;2023-01-28T02:14:23;102880.63;;;5.20;54.28
17785;BME280;9016;53.582;10.062;2023-01-28T02:16:57;102881.50;;;5.17;54.47
17785;BME280;9016;53.582;10.062;2023-01-28T02:19:30;102878.88;;;5.10;54.79
17785;BME280;9016;53.582;10.062;2023-01-28T02:22:07;102879.78;;;5.10;55.18
17785;BME280;9016;53.582;10.062;2023-01-28T02:24:55;102882.41;;;5.12;54.02
17785;BME280;9016;53.582;10.062;2023-01-28T02:27:34;102874.50;;;5.10;54.56
17785;BME280;9016;53.582;10.062;2023-01-28T02:30:09;102877.16;;;5.07;54.71
17785;BME280;9016;53.582;10.062;2023-01-28T02:32:43;102876.28;;;5.07;54.91
17785;BME280;9016;53.582;10.062;2023-01-28T02:35:16;102880.66;;;5.06;54.74
17785;BME280;9016;53.582;10.062;2023-01-28T02:37:52;102877.13;;;5.10;54.76
17785;BME280;9016;53.582;10.062;2023-01-28T02:40:26;102874.47;;;5.12;55.00
17785;BME280;9016;53.582;10.062;2023-01-28T02:42:55;102871.84;;;5.10;55.76
17785;BME280;9016;53.582;10.062;2023-01-28T02:45:26;102871.88;;;5.09;55.15
17785;BME280;9016;53.582;10.062;2023-01-28T02:48:17;102872.72;;;5.09;54.58
17785;BME280;9016;53.582;10.062;2023-01-28T02:50:48;102870.09;;;5.11;55.18
17785;BME280;9016;53.582;10.062;2023-01-28T02:53:26;102871.88;;;5.09;54.65
17785;BME280;9016;53.582;10.062;2023-01-28T02:56:17;102876.28;;;5.07;55.06
17785;BME280;9016;53.582;10.062;2023-01-28T02:58:52;102879.78;;;5.10;54.60
17785;BME280;9016;53.582;10.062;2023-01-28T03:01:25;102870.97;;;5.13;54.49
17785;BME280;9016;53.582;10.062;2023-01-28T03:03:58;102876.22;;;5.17;54.33
17785;BME280;9016;53.582;10.062;2023-01-28T03:06:31;102877.13;;;5.16;54.86
17785;BME280;9016;53.582;10.062;2023-01-28T03:09:04;102872.69;;;5.17;54.24
17785;BME280;9016;53.582;10.062;2023-01-28T03:11:54;102871.81;;;5.21;53.82
17785;BME280;9016;53.582;10.062;2023-01-28T03:14:41;102878.84;;;5.19;54.31
17785;BME280;9016;53.582;10.062;2023-01-28T03:17:43;102868.28;;;5.19;53.46
17785;BME280;9016;53.582;10.062;2023-01-28T03:20:34;102872.69;;;5.15;53.64
17785;BME280;9016;53.582;10.062;2023-01-28T03:23:27;102866.50;;;5.21;53.72
17785;BME280;9016;53.582;10.062;2023-01-28T03:26:15;102856.84;;;5.18;53.99
17785;BME280;9016;53.582;10.062;2023-01-28T03:29:06;102855.94;;;5.21;54.20
17785;BME280;9016;53.582;10.062;2023-01-28T03:31:54;102862.13;;;5.17;53.95
17785;BME280;9016;53.582;10.062;2023-01-28T03:34:42;102869.19;;;5.12;53.82
17785;BME280;9016;53.582;10.062;2023-01-28T03:37:28;102866.56;;;5.12;54.03
17785;BME280;9016;53.582;10.062;2023-01-28T03:40:01;102871.88;;;5.09;54.13
17785;BME280;9016;53.582;10.062;2023-01-28T03:42:30;102870.97;;;5.14;53.79
17785;BME280;9016;53.582;10.062;2023-01-28T03:44:59;102867.41;;;5.21;53.41
17785;BME280;9016;53.582;10.062;2023-01-28T03:47:31;102863.00;;;5.23;53.25
17785;BME280;9016;53.582;10.062;2023-01-28T03:50:01;102878.84;;;5.23;53.26
17785;BME280;9016;53.582;10.062;2023-01-28T03:52:31;102872.69;;;5.23;53.16
17785;BME280;9016;53.582;10.062;2023-01-28T03:54:59;102873.56;;;5.23;53.41
17785;BME280;9016;53.582;10.062;2023-01-28T03:57:39;102873.59;;;5.20;53.45
17785;BME280;9016;53.582;10.062;2023-01-28T04:00:08;102871.81;;;5.21;53.38
17785;BME280;9016;53.582;10.062;2023-01-28T04:02:37;102873.56;;;5.22;53.10
17785;BME280;9016;53.582;10.062;2023-01-28T04:05:08;102872.69;;;5.15;53.61
17785;BME280;9016;53.582;10.062;2023-01-28T04:07:38;102864.78;;;5.14;53.66
17785;BME280;9016;53.582;10.062;2023-01-28T04:10:08;102875.34;;;5.14;53.80
17785;BME280;9016;53.582;10.062;2023-01-28T04:12:36;102877.13;;;5.12;54.24
17785;BME280;9016;53.582;10.062;2023-01-28T04:15:06;102879.75;;;5.13;54.04
17785;BME280;9016;53.582;10.062;2023-01-28T04:17:44;102870.97;;;5.10;54.00
17785;BME280;9016;53.582;10.062;2023-01-28T04:20:15;102872.78;;;5.01;54.37
17785;BME280;9016;53.582;10.062;2023-01-28T04:22:43;102870.13;;;5.01;54.51
17785;BME280;9016;53.582;10.062;2023-01-28T04:25:11;102859.53;;;5.00;55.32
17785;BME280;9016;53.582;10.062;2023-01-28T04:27:39;102864.81;;;5.00;55.12
17785;BME280;9016;53.582;10.062;2023-01-28T04:30:08;102859.56;;;4.97;55.12
17785;BME280;9016;53.582;10.062;2023-01-28T04:32:36;102855.19;;;4.91;54.86
17785;BME280;9016;53.582;10.062;2023-01-28T04:35:05;102869.28;;;4.89;55.79
17785;BME280;9016;53.582;10.062;2023-01-28T04:37:34;102868.38;;;4.91;55.36
17785;BME280;9016;53.582;10.062;2023-01-28T04:40:02;102868.41;;;4.82;56.66
17785;BME280;9016;53.582;10.062;2023-01-28T04:42:31;102871.03;;;4.85;56.50
17785;BME280;9016;53.582;10.062;2023-01-28T04:44:58;102867.53;;;4.88;56.56
17785;BME280;9016;53.582;10.062;2023-01-28T04:47:26;102875.44;;;4.89;56.19
17785;BME280;9016;53.582;10.062;2023-01-28T04:49:54;102873.69;;;4.91;56.62
17785;BME280;9016;53.582;10.062;2023-01-28T04:52:22;102872.78;;;4.91;56.92
17785;BME280;9016;53.582;10.062;2023-01-28T04:54:51;102870.16;;;4.89;56.72
17785;BME280;9016;53.582;10.062;2023-01-28T04:57:19;102865.78;;;4.81;57.30
17785;BME280;9016;53.582;10.062;2023-01-28T04:59:47;102875.47;;;4.76;57.77
17785;BME280;9016;53.582;10.062;2023-01-28T05:02:15;102889.56;;;4.76;57.80
17785;BME280;9016;53.582;10.062;2023-01-28T05:04:43;102877.25;;;4.77;57.51
17785;BME280;9016;53.582;10.062;2023-01-28T05:07:11;102871.94;;;4.72;58.31
17785;BME280;9016;53.582;10.062;2023-01-28T05:09:39;102874.63;;;4.56;58.86
17785;BME280;9016;53.582;10.062;2023-01-28T05:12:08;102872.00;;;4.45;58.64
17785;BME280;9016;53.582;10.062;2023-01-28T05:14:36;102861.44;;;4.45;58.64
17785;BME280;9016;53.582;10.062;2023-01-28T05:17:04;102858.81;;;4.38;58.97
17785;BME280;9016;53.582;10.062;2023-01-28T05:19:32;102854.44;;;4.16;59.35
17785;BME280;9016;53.582;10.062;2023-01-28T05:22:00;102858.84;;;4.09;60.09
17785;BME280;9016;53.582;10.062;2023-01-28T05:24:28;102855.31;;;4.07;60.05
17785;BME280;9016;53.582;10.062;2023-01-28T05:26:56;102846.53;;;3.94;59.69
17785;BME280;9016;53.582;10.062;2023-01-28T05:29:25;102846.53;;;3.94;59.87
17785;BME280;9016;53.582;10.062;2023-01-28T05:31:53;102837.72;;;3.94;60.19
17785;BME280;9016;53.582;10.062;2023-01-28T05:34:21;102835.97;;;3.82;60.09
17785;BME280;9016;53.582;10.062;2023-01-28T05:36:49;102833.34;;;3.79;60.74
17785;BME280;9016;53.582;10.062;2023-01-28T05:39:17;102837.72;;;3.71;61.00
17785;BME280;9016;53.582;10.062;2023-01-28T05:41:45;102835.09;;;3.67;60.86
17785;BME280;9016;53.582;10.062;2023-01-28T05:44:13;102839.44;;;3.51;61.61
17785;BME280;9016;53.582;10.062;2023-01-28T05:46:42;102846.47;;;3.55;62.19
17785;BME280;9016;53.582;10.062;2023-01-28T05:49:12;102836.81;;;3.56;61.99
17785;BME280;9016;53.582;10.062;2023-01-28T05:51:40;102843.84;;;3.57;61.91
17785;BME280;9016;53.582;10.062;2023-01-28T05:54:08;102849.13;;;3.54;61.81
17785;BME280;9016;53.582;10.062;2023-01-28T05:56:36;102844.72;;;3.56;62.42
17785;BME280;9016;53.582;10.062;2023-01-28T05:59:05;102834.16;;;3.53;61.79
17785;BME280;9016;53.582;10.062;2023-01-28T06:01:35;102838.53;;;3.51;62.32
17785;BME280;9016;53.582;10.062;2023-01-28T06:04:05;102835.03;;;3.46;62.01
17785;BME280;9016;53.582;10.062;2023-01-28T06:06:32;102844.69;;;3.45;61.76
17785;BME280;9016;53.582;10.062;2023-01-28T06:09:00;102842.06;;;3.41;62.71
17785;BME280;9016;53.582;10.062;2023-01-28T06:11:28;102835.00;;;3.35;62.52
17785;BME280;9016;53.582;10.062;2023-01-28T06:13:56;102838.50;;;3.33;62.23
17785;BME280;9016;53.582;10.062;2023-01-28T06:16:24;102843.78;;;3.31;62.65
17785;BME280;9016;53.582;10.062;2023-01-28T06:18:52;102837.66;;;3.34;63.01
17785;BME280;9016;53.582;10.062;2023-01-28T06:21:21;102830.59;;;3.36;62.90
17785;BME280;9016;53.582;10.062;2023-01-28T06:23:49;102836.75;;;3.35;63.20
17785;BME280;9016;53.582;10.062;2023-01-28T06:26:17;102829.72;;;3.28;63.75
17785;BME280;9016;53.582;10.062;2023-01-28T06:28:45;102836.72;;;3.24;64.16
17785;BME280;9016;53.582;10.062;2023-01-28T06:31:13;102824.41;;;3.25;64.00
17785;BME280;9016;53.582;10.062;2023-01-28T06:33:41;102819.19;;;3.26;63.78
17785;BME280;9016;53.582;10.062;2023-01-28T06:36:09;102821.81;;;3.32;63.91
17785;BME280;9016;53.582;10.062;2023-01-28T06:38:38;102828.84;;;3.33;63.78
17785;BME280;9016;53.582;10.062;2023-01-28T06:41:06;102834.16;;;3.39;63.47
17785;BME280;9016;53.582;10.062;2023-01-28T06:43:34;102818.31;;;3.33;62.92
17785;BME280;9016;53.582;10.062;2023-01-28T06:46:02;102813.88;;;3.23;62.67
17785;BME280;9016;53.582;10.062;2023-01-28T06:48:30;102819.19;;;3.28;63.24
17785;BME280;9016;53.582;10.062;2023-01-28T06:50:58;102829.72;;;3.31;63.36
17785;BME280;9016;53.582;10.062;2023-01-28T06:53:26;102833.22;;;3.34;62.90
17785;BME280;9016;53.582;10.062;2023-01-28T06:55:55;102839.38;;;3.29;63.45
17785;BME280;9016;53.582;10.062;2023-01-28T06:58:23;102849.91;;;3.23;63.33
17785;BME280;9016;53.582;10.062;2023-01-28T07:00:52;102848.13;;;3.22;63.92
17785;BME280;9016;53.582;10.062;2023-01-28T07:03:20;102854.25;;;3.19;64.57
17785;BME280;9016;53.582;10.062;2023-01-28T07:05:48;102868.34;;;3.23;63.97
17785;BME280;9016;53.582;10.062;2023-01-28T07:08:16;102875.31;;;3.18;63.58
17785;BME280;9016;53.582;10.062;2023-01-28T07:10:44;102877.06;;;3.16;64.47
17785;BME280;9016;53.582;10.062;2023-01-28T07:13:13;102894.63;;;3.12;64.06
17785;BME280;9016;53.582;10.062;2023-01-28T07:15:41;102897.25;;;3.12;63.74
17785;BME280;9016;53.582;10.062;2023-01-28T07:18:09;102913.06;;;3.12;64.19
17785;BME280;9016;53.582;10.062;2023-01-28T07:20:37;102909.50;;;3.01;63.98
17785;BME280;9016;53.582;10.062;2023-01-28T07:23:05;102910.28;;;2.86;63.87
17785;BME280;9016;53.582;10.062;2023-01-28T07:25:33;102912.06;;;2.89;64.57
17785;BME280;9016;53.582;10.062;2023-01-28T07:28:00;102917.28;;;2.84;64.58
17785;BME280;9016;53.582;10.062;2023-01-28T07:30:30;102919.91;;;2.84;64.80
17785;BME280;9016;53.582;10.062;2023-01-28T07:32:58;102920.81;;;2.86;64.36
17785;BME280;9016;53.582;10.062;2023-01-28T07:35:26;102914.59;;;2.77;64.99
17785;BME280;9016;53.582;10.062;2023-01-28T07:37:56;102919.81;;;2.65;65.87
17785;BME280;9016;53.582;10.062;2023-01-28T07:40:25;102907.53;;;2.67;66.29
17785;BME280;9016;53.582;10.062;2023-01-28T07:42:54;102919.81;;;2.63;66.05
17785;BME280;9016;53.582;10.062;2023-01-28T07:45:22;102924.22;;;2.67;65.91
17785;BME280;9016;53.582;10.062;2023-01-28T07:47:56;102918.06;;;2.65;66.38
17785;BME280;9016;53.582;10.062;2023-01-28T07:50:25;102929.44;;;2.66;65.81
17785;BME280;9016;53.582;10.062;2023-01-28T07:52:54;102921.50;;;2.55;66.95
17785;BME280;9016;53.582;10.062;2023-01-28T07:55:23;102924.06;;;2.49;66.72
17785;BME280;9016;53.582;10.062;2023-01-28T07:57:52;102922.31;;;2.50;67.20
17785;BME280;9016;53.582;10.062;2023-01-28T08:00:22;102923.22;;;2.53;67.20
17785;BME280;9016;53.582;10.062;2023-01-28T08:02:56;102923.28;;;2.59;66.62
17785;BME280;9016;53.582;10.062;2023-01-28T08:05:25;102932.03;;;2.58;67.62
17785;BME280;9016;53.582;10.062;2023-01-28T08:07:56;102943.44;;;2.57;66.98
17785;BME280;9016;53.582;10.062;2023-01-28T08:10:24;102940.78;;;2.54;67.04
17785;BME280;9016;53.582;10.062;2023-01-28T08:12:53;102944.31;;;2.59;67.33
17785;BME280;9016;53.582;10.062;2023-01-28T08:15:21;102946.00;;;2.53;66.61
17785;BME280;9016;53.582;10.062;2023-01-28T08:17:50;102947.78;;;2.54;67.67
17785;BME280;9016;53.582;10.062;2023-01-28T08:20:21;102944.28;;;2.55;67.75
17785;BME280;9016;53.582;10.062;2023-01-28T08:22:49;102935.59;;;2.62;68.06
17785;BME280;9016;53.582;10.062;2023-01-28T08:25:18;102936.44;;;2.62;68.04
17785;BME280;9016;53.582;10.062;2023-01-28T08:27:45;102938.25;;;2.66;67.41
17785;BME280;9016;53.582;10.062;2023-01-28T08:30:14;102931.25;;;2.70;67.31
17785;BME280;9016;53.582;10.062;2023-01-28T08:32:42;102940.06;;;2.76;67.38
17785;BME280;9016;53.582;10.062;2023-01-28T08:35:10;102949.72;;;2.77;67.07
17785;BME280;9016;53.582;10.062;2023-01-28T08:37:39;102948.88;;;2.84;67.43
17785;BME280;9016;53.582;10.062;2023-01-28T08:40:09;102939.28;;;2.91;67.70
17785;BME280;9016;53.582;10.062;2023-01-28T08:42:37;102924.41;;;2.96;67.24
17785;BME280;9016;53.582;10.062;2023-01-28T08:45:06;102938.47;;;2.99;66.89
17785;BME280;9016;53.582;10.062;2023-01-28T08:47:34;102940.19;;;2.94;66.47
17785;BME280;9016;53.582;10.062;2023-01-28T08:50:02;102941.88;;;2.86;66.24
17785;BME280;9016;53.582;10.062;2023-01-28T08:52:30;102943.66;;;2.90;66.21
17785;BME280;9016;53.582;10.062;2023-01-28T08:54:59;102956.03;;;3.00;65.78
17785;BME280;9016;53.582;10.062;2023-01-28T08:57:27;102949.88;;;3.03;65.33
17785;BME280;9016;53.582;10.062;2023-01-28T08:59:55;102965.72;;;3.09;65.37
17785;BME280;9016;53.582;10.062;2023-01-28T09:02:31;102970.13;;;3.10;65.39
17785;BME280;9016;53.582;10.062;2023-01-28T09:04:59;102973.63;;;3.14;64.58
17785;BME280;9016;53.582;10.062;2023-01-28T09:07:27;102969.25;;;3.14;64.64
17785;BME280;9016;53.582;10.062;2023-01-28T09:09:55;102962.25;;;3.16;65.07
17785;BME280;9016;53.582;10.062;2023-01-28T09:12:23;102955.19;;;3.14;64.67
17785;BME280;9016;53.582;10.062;2023-01-28T09:14:51;102972.84;;;3.24;64.81
17785;BME280;9016;53.582;10.062;2023-01-28T09:17:19;102982.53;;;3.28;63.99
17785;BME280;9016;53.582;10.062;2023-01-28T09:19:49;102993.97;;;3.34;64.24
17785;BME280;9016;53.582;10.062;2023-01-28T09:22:17;103000.16;;;3.45;63.54
17785;BME280;9016;53.582;10.062;2023-01-28T09:24:45;102994.03;;;3.45;62.49
17785;BME280;9016;53.582;10.062;2023-01-28T09:27:13;102984.44;;;3.56;62.11
17785;BME280;9016;53.582;10.062;2023-01-28T09:29:41;102994.13;;;3.63;62.12
17785;BME280;9016;53.582;10.062;2023-01-28T09:32:09;102997.66;;;3.66;60.47
17785;BME280;9016;53.582;10.062;2023-01-28T09:34:37;102997.69;;;3.75;60.60
17785;BME280;9016;53.582;10.062;2023-01-28T09:37:07;102995.88;;;3.65;60.66
17785;BME280;9016;53.582;10.062;2023-01-28T09:39:37;102999.41;;;3.64;59.60
17785;BME280;9016;53.582;10.062;2023-01-28T09:42:21;103000.28;;;3.69;60.25
17785;BME280;9016;53.582;10.062;2023-01-28T09:45:00;103012.59;;;3.75;59.84
17785;BME280;9016;53.582;10.062;2023-01-28T09:47:32;102995.91;;;3.68;60.28
17785;BME280;9016;53.582;10.062;2023-01-28T09:50:05;102998.56;;;3.76;60.08
17785;BME280;9016;53.582;10.062;2023-01-28T09:52:38;102995.00;;;3.68;60.46
17785;BME280;9016;53.582;10.062;2023-01-28T09:55:14;102981.81;;;3.66;59.34
17785;BME280;9016;53.582;10.062;2023-01-28T09:57:45;102970.34;;;3.60;60.07
17785;BME280;9016;53.582;10.062;2023-01-28T10:00:15;102981.78;;;3.62;60.08
17785;BME280;9016;53.582;10.062;2023-01-28T10:03:01;102973.97;;;3.81;59.52
17785;BME280;9016;53.582;10.062;2023-01-28T10:05:39;102959.91;;;3.81;59.53
17785;BME280;9016;53.582;10.062;2023-01-28T10:08:25;102954.63;;;3.93;59.54
17785;BME280;9016;53.582;10.062;2023-01-28T10:11:00;102955.50;;;3.84;58.60
17785;BME280;9016;53.582;10.062;2023-01-28T10:13:39;102958.19;;;4.10;59.27
17785;BME280;9016;53.582;10.062;2023-01-28T10:16:23;102953.84;;;4.42;58.21
17785;BME280;9016;53.582;10.062;2023-01-28T10:18:55;102954.72;;;4.50;59.09
17785;BME280;9016;53.582;10.062;2023-01-28T10:21:31;102946.78;;;4.64;58.02
17785;BME280;9016;53.582;10.062;2023-01-28T10:24:10;102946.75;;;4.95;57.30
17785;BME280;9016;53.582;10.062;2023-01-28T10:26:43;102952.91;;;5.07;56.10
17785;BME280;9016;53.582;10.062;2023-01-28T10:29:14;102947.59;;;5.10;55.58
17785;BME280;9016;53.582;10.062;2023-01-28T10:31:51;102951.97;;;5.24;55.58
17785;BME280;9016;53.582;10.062;2023-01-28T10:34:19;102933.47;;;5.17;54.78
17785;BME280;9016;53.582;10.062;2023-01-28T10:36:49;102927.31;;;5.19;54.66
17785;BME280;9016;53.582;10.062;2023-01-28T10:39:20;102928.28;;;4.95;56.19
17785;BME280;9016;53.582;10.062;2023-01-28T10:41:50;102926.44;;;5.20;56.36
17785;BME280;9016;53.582;10.062;2023-01-28T10:44:30;102926.47;;;5.05;54.92
17785;BME280;9016;53.582;10.062;2023-01-28T10:47:03;102916.72;;;5.25;55.99
17785;BME280;9016;53.582;10.062;2023-01-28T10:49:40;102913.16;;;5.35;55.26
17785;BME280;9016;53.582;10.062;2023-01-28T10:52:11;102900.78;;;5.39;54.35
17785;BME280;9016;53.582;10.062;2023-01-28T10:54:41;102893.81;;;5.24;54.00
17785;BME280;9016;53.582;10.062;2023-01-28T10:57:11;102890.28;;;5.28;55.30
17785;BME280;9016;53.582;10.062;2023-01-28T10:59:41;102890.28;;;5.22;54.99
17785;BME280;9016;53.582;10.062;2023-01-28T11:02:23;102869.09;;;5.40;54.26
17785;BME280;9016;53.582;10.062;2023-01-28T11:05:05;102875.34;;;5.20;54.67
17785;BME280;9016;53.582;10.062;2023-01-28T11:07:33;102870.13;;;5.03;55.65
17785;BME280;9016;53.582;10.062;2023-01-28T11:10:25;102871.81;;;5.19;55.50
17785;BME280;9016;53.582;10.062;2023-01-28T11:12:54;102872.63;;;5.32;55.60
17785;BME280;9016;53.582;10.062;2023-01-28T11:15:22;102874.41;;;5.31;56.09
17785;BME280;9016;53.582;10.062;2023-01-28T11:17:55;102865.56;;;5.35;55.01
17785;BME280;9016;53.582;10.062;2023-01-28T11:20:26;102863.84;;;5.28;55.24
17785;BME280;9016;53.582;10.062;2023-01-28T11:22:55;102860.38;;;5.22;56.26
17785;BME280;9016;53.582;10.062;2023-01-28T11:25:28;102853.19;;;5.39;55.79
17785;BME280;9016;53.582;10.062;2023-01-28T11:27:58;102846.16;;;5.41;56.18
17785;BME280;9016;53.582;10.062;2023-01-28T11:30:29;102838.31;;;5.21;55.66
17785;BME280;9016;53.582;10.062;2023-01-28T11:33:04;102819.81;;;5.27;55.61
17785;BME280;9016;53.582;10.062;2023-01-28T11:35:34;102825.88;;;5.43;55.83
17785;BME280;9016;53.582;10.062;2023-01-28T11:38:02;102831.13;;;5.49;55.28
17785;BME280;9016;53.582;10.062;2023-01-28T11:40:31;102825.63;;;5.77;55.59
17785;BME280;9016;53.582;10.062;2023-01-28T11:42:59;102827.41;;;5.84;55.25
17785;BME280;9016;53.582;10.062;2023-01-28T11:45:36;102832.50;;;6.07;54.12
17785;BME280;9016;53.582;10.062;2023-01-28T11:48:17;102816.59;;;6.07;54.35
17785;BME280;9016;53.582;10.062;2023-01-28T11:50:55;102811.44;;;5.93;54.60
17785;BME280;9016;53.582;10.062;2023-01-28T11:53:59;102815.91;;;5.87;54.74
17785;BME280;9016;53.582;10.062;2023-01-28T11:56:41;102812.41;;;5.79;54.54
17785;BME280;9016;53.582;10.062;2023-01-28T11:59:30;102817.78;;;5.65;54.93
17785;BME280;9016;53.582;10.062;2023-01-28T12:02:17;102819.66;;;5.48;55.47
17785;BME280;9016;53.582;10.062;2023-01-28T12:04:58;102827.69;;;5.33;56.54
17785;BME280;9016;53.582;10.062;2023-01-28T12:07:37;102828.50;;;5.47;56.27
17785;BME280;9016;53.582;10.062;2023-01-28T12:10:14;102829.31;;;5.54;56.14
17785;BME280;9016;53.582;10.062;2023-01-28T12:12:57;102812.53;;;5.61;55.85
17785;BME280;9016;53.582;10.062;2023-01-28T12:16:11;102822.25;;;5.56;56.25
17785;BME280;9016;53.582;10.062;2023-01-28T12:19:04;102821.25;;;5.72;55.81
17785;BME280;9016;53.582;10.062;2023-01-28T12:21:44;102808.91;;;5.74;55.58
17785;BME280;9016;53.582;10.062;2023-01-28T12:24:25;102806.34;;;5.63;56.05
17785;BME280;9016;53.582;10.062;2023-01-28T12:27:05;102809.88;;;5.61;55.90
17785;BME280;9016;53.582;10.062;2023-01-28T12:29:43;102798.47;;;5.54;55.60
17785;BME280;9016;53.582;10.062;2023-01-28T12:32:34;102802.06;;;5.44;56.34
17785;BME280;9016;53.582;10.062;2023-01-28T12:35:25;102801.06;;;5.63;56.63
17785;BME280;9016;53.582;10.062;2023-01-28T12:37:59;102801.00;;;5.71;56.22
17785;BME280;9016;53.582;10.062;2023-01-28T12:40:58;102786.72;;;5.97;55.41
17785;BME280;9016;53.582;10.062;2023-01-28T12:43:41;102779.72;;;5.89;56.28
17785;BME280;9016;53.582;10.062;2023-01-28T12:46:17;102788.38;;;6.08;56.15
17785;BME280;9016;53.582;10.062;2023-01-28T12:48:53;102776.81;;;6.16;56.28
17785;BME280;9016;53.582;10.062;2023-01-28T12:51:29;102770.78;;;6.02;56.13
17785;BME280;9016;53.582;10.062;2023-01-28T12:54:03;102771.75;;;5.93;56.40
17785;BME280;9016;53.582;10.062;2023-01-28T12:56:38;102752.28;;;6.00;56.39
17785;BME280;9016;53.582;10.062;2023-01-28T12:59:11;102754.06;;;5.98;56.33
17785;BME280;9016;53.582;10.062;2023-01-28T13:01:46;102753.09;;;6.09;56.34
17785;BME280;9016;53.582;10.062;2023-01-28T13:04:24;102752.06;;;6.23;56.06
17785;BME280;9016;53.582;10.062;2023-01-28T13:06:59;102753.00;;;6.16;56.35
17785;BME280;9016;53.582;10.062;2023-01-28T13:09:29;102748.66;;;6.09;56.35
17785;BME280;9016;53.582;10.062;2023-01-28T13:11:59;102744.25;;;6.10;56.12
17785;BME280;9016;53.582;10.062;2023-01-28T13:14:30;102750.59;;;5.90;56.80
17785;BME280;9016;53.582;10.062;2023-01-28T13:17:09;102748.22;;;5.56;57.15
17785;BME280;9016;53.582;10.062;2023-01-28T13:19:40;102751.91;;;5.37;58.00
17785;BME280;9016;53.582;10.062;2023-01-28T13:22:21;102752.00;;;5.22;59.64
17785;BME280;9016;53.582;10.062;2023-01-28T13:24:52;102744.13;;;5.10;59.38
17785;BME280;9016;53.582;10.062;2023-01-28T13:27:23;102737.91;;;5.17;59.77